Time;durP1;ratioP1;P1;durP2;ratioP2;P2;SDS_P1;SDS_P2;PMS_P1;PMS_P2;Temp;Humidity;BMP_temperature;BMP_pressure;BME280_temperature;BME280_humidity;BME280_pressure;Samples;Min_cycle;Max_cycle;Signal;HPM_P1;HPM_P2
2021/07/13 00:01:42;;;;;;;;;;;;;;;26.33;50.00;101054.63;4952460;29;19918;-92
2021/07/13 00:04:14;;;;;;;;;;;;;;;26.51;49.26;101044.25;4953086;29;19922;-92
2021/07/13 00:06:47;;;;;;;;;;;;;;;26.56;49.31;101042.84;4953148;29;19924;-91
2021/07/13 00:09:13;;;;;;;;;;;;;;;26.69;48.65;101038.56;4952720;29;19978;-92
2021/07/13 00:11:39;;;;;;;;;;;;;;;26.97;47.74;101042.84;4951455;29;19918;-92
2021/07/13 00:14:05;;;;;;;;;;;;;;;26.85;48.03;101057.09;4951850;29;19946;-91
2021/07/13 00:16:39;;;;;;;;;;;;;;;26.97;47.58;101051.19;4950977;29;19969;-91
2021/07/13 00:19:31;;;;;;;;;;;;;;;27.00;47.56;101054.47;4951863;29;19919;-91
2021/07/13 00:22:11;;;;;;;;;;;;;;;26.76;47.86;101057.28;4951810;29;19918;-91
2021/07/13 00:24:42;;;;;;;;;;;;;;;26.71;48.66;101063.34;4952058;29;19922;-92
2021/07/13 00:30:36;;;;;;;;;;;;;;;26.75;48.11;101063.88;4968620;29;19918;-94
2021/07/13 00:33:14;;;;;;;;;;;;;;;26.43;49.02;101060.00;4958865;23;19974;-92
2021/07/13 00:35:54;;;;;;;;;;;;;;;26.19;49.49;101058.94;4951550;29;19910;-92
2021/07/13 00:38:20;;;;;;;;;;;;;;;26.24;49.51;101056.53;4956320;28;19977;-91
2021/07/13 00:40:59;;;;;;;;;;;;;;;26.31;48.56;101065.03;4963853;28;19919;-93
2021/07/13 00:43:47;;;;;;;;;;;;;;;26.14;48.92;101062.22;4962824;28;19950;-94
2021/07/13 00:46:23;;;;;;;;;;;;;;;;;;;;;
2021/07/13 00:49:04;;;;;;;;;;;;;;;;;;;;;
2021/07/13 00:52:01;;;;;;;;;;;;;;;26.67;47.33;101053.63;5021456;23;20010;-92
2021/07/13 00:54:29;;;;;;;;;;;;;;;26.40;48.00;101065.91;4931352;29;19923;-92
2021/07/13 00:57:08;;;;;;;;;;;;;;;26.16;49.12;101067.59;4930530;29;19925;-92
2021/07/13 00:59:41;;;;;;;;;;;;;;;26.31;48.58;101067.78;4930733;29;19926;-92
2021/07/13 01:02:23;;;;;;;;;;;;;;;25.86;50.49;101060.72;4931289;29;19923;-93
2021/07/13 01:05:00;;;;;;;;;;;;;;;;;;;;;
2021/07/13 01:07:59;;;;;;;;;;;;;;;26.32;48.67;101064.00;4990832;23;20013;-92
2021/07/13 01:13:32;;;;;;;;;;;;;;;26.00;49.49;101077.63;4962517;29;19919;-92
2021/07/13 01:19:25;;;;;;;;;;;;;;;26.15;48.92;101075.06;4968461;29;19930;-93
2021/07/13 01:21:54;;;;;;;;;;;;;;;26.13;49.57;101074.38;4950712;29;19919;-92
2021/07/13 01:24:39;;;;;;;;;;;;;;;26.14;49.13;101069.69;4949917;29;19919;-93
2021/07/13 01:27:17;;;;;;;;;;;;;;;26.11;49.30;101070.88;4950174;29;20388;-94
2021/07/13 01:29:48;;;;;;;;;;;;;;;26.14;48.83;101067.75;4950416;29;19926;-93
2021/07/13 01:32:29;;;;;;;;;;;;;;;26.08;49.53;101062.91;4950998;29;19919;-92
2021/07/13 01:35:04;;;;;;;;;;;;;;;25.94;50.03;101060.78;4951002;29;19918;-92
2021/07/13 01:37:34;;;;;;;;;;;;;;;25.93;50.23;101061.78;4950290;29;19923;-92
2021/07/13 01:40:01;;;;;;;;;;;;;;;26.03;49.66;101062.56;4951483;29;19903;-92
2021/07/13 01:42:29;;;;;;;;;;;;;;;25.65;51.13;101060.13;4951577;29;19922;-93
2021/07/13 01:45:08;;;;;;;;;;;;;;;25.88;50.70;101059.53;4935948;29;20021;-93
2021/07/13 01:50:04;;;;;;;;;;;;;;;25.95;50.42;101062.47;5139331;23;19951;-92
2021/07/13 01:52:41;;;;;;;;;;;;;;;25.98;50.27;101062.13;4947436;29;20049;-93
2021/07/13 01:55:08;;;;;;;;;;;;;;;25.82;50.87;101074.91;4930971;29;19919;-93
2021/07/13 01:57:34;;;;;;;;;;;;;;;26.12;50.15;101064.31;4930076;29;20514;-94
2021/07/13 02:00:22;;;;;;;;;;;;;;;25.73;50.82;101064.84;4930158;29;19919;-94
2021/07/13 02:03:13;;;;;;;;;;;;;;;25.78;50.77;101067.97;4945243;28;19923;-93
2021/07/13 02:05:54;;;;;;;;;;;;;;;24.58;55.26;101069.63;4907868;29;19919;-92
2021/07/13 02:08:28;;;;;;;;;;;;;;;25.25;53.12;101080.16;4892389;29;19919;-93
2021/07/13 02:10:54;;;;;;;;;;;;;;;25.87;51.54;101076.34;4892490;29;19955;-92
2021/07/13 02:13:32;;;;;;;;;;;;;;;26.19;50.33;101070.03;4893453;29;19944;-94
2021/07/13 02:16:02;;;;;;;;;;;;;;;26.41;50.47;101067.66;4893530;29;19919;-93
2021/07/13 02:18:50;;;;;;;;;;;;;;;26.64;49.88;101057.59;4892736;29;19987;-92
2021/07/13 02:21:24;;;;;;;;;;;;;;;26.65;50.19;101066.81;4909096;29;19942;-92
2021/07/13 02:23:52;;;;;;;;;;;;;;;26.47;51.09;101062.28;4892975;29;19927;-91
2021/07/13 02:26:32;;;;;;;;;;;;;;;26.65;50.65;101053.78;4892534;29;19920;-92
2021/07/13 02:29:16;;;;;;;;;;;;;;;26.85;50.40;101059.88;4892994;29;19924;-92
2021/07/13 02:31:47;;;;;;;;;;;;;;;26.96;49.57;101055.84;4892671;29;19920;-92
2021/07/13 02:34:14;;;;;;;;;;;;;;;26.78;49.95;101047.72;4895329;29;19920;-92
2021/07/13 02:36:52;;;;;;;;;;;;;;;26.92;49.50;101048.06;4913636;29;19918;-92
2021/07/13 02:39:19;;;;;;;;;;;;;;;26.93;49.09;101055.34;4932078;29;19926;-92
2021/07/13 02:41:59;;;;;;;;;;;;;;;26.75;49.89;101048.06;4948896;29;19919;-92
2021/07/13 02:44:26;;;;;;;;;;;;;;;27.03;49.40;101048.56;4932178;29;19925;-92
2021/07/13 02:46:55;;;;;;;;;;;;;;;27.01;49.58;101047.00;4932148;29;19926;-92
2021/07/13 02:49:35;;;;;;;;;;;;;;;26.87;50.12;101043.03;4932134;29;19922;-93
2021/07/13 02:52:11;;;;;;;;;;;;;;;26.97;49.90;101035.38;4937189;29;19997;-93
2021/07/13 02:54:55;;;;;;;;;;;;;;;27.04;49.96;101036.41;4937468;29;20006;-92
2021/07/13 02:57:24;;;;;;;;;;;;;;;27.23;49.72;101048.16;4934672;29;19939;-92
2021/07/13 03:00:14;;;;;;;;;;;;;;;;;;;;;
2021/07/13 03:03:16;;;;;;;;;;;;;;;27.04;50.98;101041.13;4982242;23;19934;-93
2021/07/13 03:05:51;;;;;;;;;;;;;;;27.24;50.33;101036.88;4950053;28;19926;-92
2021/07/13 03:08:37;;;;;;;;;;;;;;;;;;;;;
2021/07/13 03:11:03;;;;;;;;;;;;;;;27.32;51.10;101037.91;4969371;29;20443;-93
2021/07/13 03:14:12;;;;;;;;;;;;;;;27.36;51.07;101044.88;4953932;29;19918;-92
2021/07/13 03:16:54;;;;;;;;;;;;;;;27.47;50.54;101047.25;4922204;29;19918;-92
2021/07/13 03:23:13;;;;;;;;;;;;;;;27.49;50.65;101044.31;4971784;29;19918;-92
2021/07/13 03:25:53;;;;;;;;;;;;;;;27.52;49.90;101038.38;4971762;28;19918;-93
2021/07/13 03:31:38;;;;;;;;;;;;;;;27.38;50.53;101037.22;5104315;23;19927;-94
2021/07/13 03:34:06;;;;;;;;;;;;;;;27.45;50.33;101041.03;4971584;29;20507;-92
2021/07/13 03:36:48;;;;;;;;;;;;;;;27.48;49.95;101043.44;4954516;28;19929;-93
2021/07/13 03:39:18;;;;;;;;;;;;;;;27.30;50.96;101040.00;4971027;29;19918;-92
2021/07/13 03:41:47;;;;;;;;;;;;;;;27.44;50.54;101043.97;4954609;29;19918;-93
2021/07/13 03:44:14;;;;;;;;;;;;;;;27.39;50.69;101042.59;4970893;29;19929;-91
2021/07/13 03:46:40;;;;;;;;;;;;;;;27.37;50.76;101047.47;4954248;29;19918;-92
2021/07/13 03:49:06;;;;;;;;;;;;;;;27.38;50.68;101048.34;4954305;29;19978;-92
2021/07/13 03:51:44;;;;;;;;;;;;;;;27.21;51.66;101040.03;4954879;29;19925;-91
2021/07/13 03:54:11;;;;;;;;;;;;;;;26.74;53.40;101037.13;4954917;29;19918;-92
2021/07/13 03:56:38;;;;;;;;;;;;;;;26.75;53.62;101048.06;4972316;29;19942;-92
2021/07/13 03:59:15;;;;;;;;;;;;;;;27.13;52.53;101045.59;4955323;29;19965;-92
2021/07/13 04:01:40;;;;;;;;;;;;;;;27.35;52.13;101041.22;4956435;28;19919;-91
2021/07/13 04:04:06;;;;;;;;;;;;;;;27.58;51.81;101043.22;4958963;29;20335;-91
2021/07/13 04:06:38;;;;;;;;;;;;;;;27.70;51.42;101046.47;4964835;28;19973;-92
2021/07/13 04:09:08;;;;;;;;;;;;;;;27.87;50.74;101045.34;4963453;28;19934;-93
2021/07/13 04:11:35;;;;;;;;;;;;;;;27.52;52.28;101047.59;4958482;29;20305;-92
2021/07/13 04:14:06;;;;;;;;;;;;;;;27.58;52.27;101051.56;4955891;28;19923;-93
2021/07/13 04:16:31;;;;;;;;;;;;;;;27.51;52.60;101059.75;4937423;29;19966;-92
2021/07/13 04:18:58;;;;;;;;;;;;;;;27.59;52.23;101056.06;4953046;29;19945;-93
2021/07/13 04:21:46;;;;;;;;;;;;;;;27.27;53.70;101059.81;4936053;29;19982;-93
2021/07/13 04:24:16;;;;;;;;;;;;;;;27.44;53.11;101055.97;4953209;29;19958;-92
2021/07/13 04:26:41;;;;;;;;;;;;;;;27.81;51.99;101059.97;4952195;29;19950;-90
2021/07/13 04:29:07;;;;;;;;;;;;;;;27.97;51.51;101072.09;4953568;29;19918;-92
2021/07/13 04:31:36;;;;;;;;;;;;;;;27.85;51.49;101071.59;4951316;29;19994;-92
2021/07/13 04:34:09;;;;;;;;;;;;;;;27.46;52.66;101075.22;4953027;29;19918;-93
2021/07/13 04:36:34;;;;;;;;;;;;;;;26.42;55.76;101086.00;4968280;29;19918;-92
2021/07/13 04:39:20;;;;;;;;;;;;;;;25.60;59.14;101086.59;4951790;29;19926;-93
2021/07/13 04:41:49;;;;;;;;;;;;;;;26.26;57.64;101087.72;4953043;28;19993;-90
2021/07/13 04:44:34;;;;;;;;;;;;;;;25.35;60.14;101083.72;4965970;29;19957;-89
2021/07/13 04:46:59;;;;;;;;;;;;;;;26.41;56.99;101085.16;4949236;29;20299;-88
2021/07/13 04:49:31;;;;;;;;;;;;;;;26.29;57.68;101086.53;4951328;29;19919;-90
2021/07/13 04:51:56;;;;;;;;;;;;;;;27.02;54.86;101082.91;4949741;29;19919;-88
2021/07/13 04:54:21;;;;;;;;;;;;;;;26.61;56.27;101090.38;4950801;29;19906;-90
2021/07/13 04:56:47;;;;;;;;;;;;;;;27.69;52.74;101089.19;4953554;28;19925;-93
2021/07/13 04:59:37;;;;;;;;;;;;;;;26.60;56.50;101088.63;4953074;29;20398;-94
2021/07/13 05:02:24;;;;;;;;;;;;;;;28.00;51.33;101089.28;4944869;29;19919;-90
2021/07/13 05:04:48;;;;;;;;;;;;;;;28.15;50.99;101092.16;4968725;29;19981;-90
2021/07/13 05:07:16;;;;;;;;;;;;;;;28.24;50.65;101085.47;4952087;29;19918;-91
2021/07/13 05:09:45;;;;;;;;;;;;;;;28.19;50.97;101084.31;4952659;29;19918;-90
2021/07/13 05:12:11;;;;;;;;;;;;;;;28.26;50.43;101086.19;4969163;29;19923;-92
2021/07/13 05:14:36;;;;;;;;;;;;;;;28.29;50.93;101096.06;4952254;29;19922;-91
2021/07/13 05:17:03;;;;;;;;;;;;;;;28.43;50.73;101097.19;4951939;29;19982;-93
2021/07/13 05:19:31;;;;;;;;;;;;;;;28.43;50.75;101097.19;4955610;29;19919;-90
2021/07/13 05:22:01;;;;;;;;;;;;;;;28.60;49.56;101104.41;4954026;29;20372;-93
2021/07/13 05:24:26;;;;;;;;;;;;;;;28.71;49.96;101110.59;4954244;29;20407;-89
2021/07/13 05:26:53;;;;;;;;;;;;;;;28.48;50.32;101103.06;4952302;29;19922;-91
2021/07/13 05:29:20;;;;;;;;;;;;;;;28.53;50.59;101114.50;4953616;29;19925;-91
2021/07/13 05:31:45;;;;;;;;;;;;;;;28.59;49.79;101111.00;4951321;29;19929;-90
2021/07/13 05:34:11;;;;;;;;;;;;;;;28.61;49.97;101111.72;4952691;28;19919;-88
2021/07/13 05:36:37;;;;;;;;;;;;;;;28.37;50.55;101103.47;4949798;29;19919;-90
2021/07/13 05:39:05;;;;;;;;;;;;;;;27.89;51.39;101109.13;4947328;29;19925;-93
2021/07/13 05:41:30;;;;;;;;;;;;;;;27.90;51.56;101113.63;4946351;29;19927;-87
2021/07/13 05:43:57;;;;;;;;;;;;;;;28.01;51.38;101110.47;4945329;29;19918;-88
2021/07/13 05:46:22;;;;;;;;;;;;;;;27.88;51.60;101099.88;4946394;29;19919;-92
2021/07/13 05:48:49;;;;;;;;;;;;;;;28.18;50.94;101111.25;4947875;29;20029;-92
2021/07/13 05:51:14;;;;;;;;;;;;;;;28.58;49.50;101109.25;4952729;29;20368;-92
2021/07/13 05:53:39;;;;;;;;;;;;;;;28.46;50.06;101110.75;4945974;29;20022;-91
2021/07/13 05:56:05;;;;;;;;;;;;;;;28.60;48.99;101104.41;4945130;29;19918;-90
2021/07/13 05:58:31;;;;;;;;;;;;;;;28.20;50.40;101111.97;4940746;29;19919;-87
2021/07/13 06:00:57;;;;;;;;;;;;;;;28.01;50.50;101099.34;4941286;29;19919;-89
2021/07/13 06:03:23;;;;;;;;;;;;;;;28.73;48.87;101109.34;4959594;29;19925;-88
2021/07/13 06:05:51;;;;;;;;;;;;;;;28.82;48.89;101101.78;4946344;29;19923;-93
2021/07/13 06:08:16;;;;;;;;;;;;;;;28.90;48.50;101101.72;4945288;29;19925;-90
2021/07/13 06:10:42;;;;;;;;;;;;;;;28.54;49.66;101102.31;4942877;29;20012;-90
2021/07/13 06:13:07;;;;;;;;;;;;;;;28.66;48.79;101096.38;4942672;29;19922;-91
2021/07/13 06:15:32;;;;;;;;;;;;;;;29.09;48.09;101107.81;4960768;29;19915;-90
2021/07/13 06:17:57;;;;;;;;;;;;;;;29.00;48.25;101107.00;4944548;28;19972;-88
2021/07/13 06:20:23;;;;;;;;;;;;;;;28.79;48.73;101114.19;4944133;29;19914;-92
2021/07/13 06:22:48;;;;;;;;;;;;;;;28.57;49.90;101117.81;4942058;29;19914;-88
2021/07/13 06:25:14;;;;;;;;;;;;;;;28.79;48.72;101125.31;4942912;29;20365;-85
2021/07/13 06:27:39;;;;;;;;;;;;;;;28.88;48.08;101128.91;4946955;29;19955;-89
2021/07/13 06:30:06;;;;;;;;;;;;;;;28.77;48.73;101121.84;4946207;29;20367;-91
2021/07/13 06:32:31;;;;;;;;;;;;;;;28.55;49.36;101119.88;4945163;29;19950;-93
2021/07/13 06:34:57;;;;;;;;;;;;;;;28.17;50.04;101119.78;4952047;29;20032;-90
2021/07/13 06:37:23;;;;;;;;;;;;;;;28.61;48.60;101122.84;4944776;29;19922;-90
2021/07/13 06:39:49;;;;;;;;;;;;;;;28.30;49.43;101120.06;4948132;29;20399;-89
2021/07/13 06:42:14;;;;;;;;;;;;;;;28.74;48.65;101124.13;4944891;29;19956;-88
2021/07/13 06:44:39;;;;;;;;;;;;;;;28.85;48.35;101132.03;4952212;28;19986;-91
2021/07/13 06:47:04;;;;;;;;;;;;;;;28.96;48.38;101125.19;4964708;28;19907;-91
2021/07/13 06:49:30;;;;;;;;;;;;;;;28.67;49.31;101124.03;4947319;29;19926;-92
2021/07/13 06:51:55;;;;;;;;;;;;;;;28.75;48.81;101132.31;4946659;29;19919;-91
2021/07/13 06:54:20;;;;;;;;;;;;;;;28.63;48.99;101131.84;4946097;29;19923;-92
2021/07/13 06:56:45;;;;;;;;;;;;;;;28.67;49.12;101134.28;4946126;29;19918;-90
2021/07/13 06:59:11;;;;;;;;;;;;;;;28.40;49.97;101131.81;4945453;29;19918;-91
2021/07/13 07:01:36;;;;;;;;;;;;;;;28.05;50.19;101131.31;4946159;29;19919;-91
2021/07/13 07:04:01;;;;;;;;;;;;;;;28.93;48.39;101140.34;4945707;29;19930;-90
2021/07/13 07:06:27;;;;;;;;;;;;;;;28.80;48.89;101142.88;4945779;29;19925;-91
2021/07/13 07:08:52;;;;;;;;;;;;;;;27.74;51.15;101145.16;4944658;29;19918;-90
2021/07/13 07:11:18;;;;;;;;;;;;;;;28.10;50.18;101144.69;4944009;29;19955;-89
2021/07/13 07:13:43;;;;;;;;;;;;;;;28.10;50.05;101142.75;4945328;29;19920;-89
2021/07/13 07:16:09;;;;;;;;;;;;;;;27.89;50.42;101137.78;4960921;29;19918;-87
2021/07/13 07:18:34;;;;;;;;;;;;;;;28.86;48.19;101139.34;4943957;29;19918;-88
2021/07/13 07:20:59;;;;;;;;;;;;;;;28.85;48.01;101137.59;4945221;29;19926;-87
2021/07/13 07:23:25;;;;;;;;;;;;;;;28.92;47.86;101141.38;4963849;29;19918;-88
2021/07/13 07:25:50;;;;;;;;;;;;;;;28.63;49.16;101137.44;4964830;28;19926;-87
2021/07/13 07:28:15;;;;;;;;;;;;;;;29.28;46.89;101142.66;4965550;28;19938;-87
2021/07/13 07:30:41;;;;;;;;;;;;;;;28.31;49.76;101144.06;4959183;28;19974;-87
2021/07/13 07:33:09;;;;;;;;;;;;;;;28.46;49.65;101138.56;4952001;28;19922;-88
2021/07/13 07:35:34;;;;;;;;;;;;;;;28.90;47.99;101146.28;4950697;29;20385;-88
2021/07/13 07:38:00;;;;;;;;;;;;;;;28.80;48.91;101146.50;4944636;29;19926;-89
2021/07/13 07:40:27;;;;;;;;;;;;;;;28.76;48.52;101149.88;4946106;29;19926;-90
2021/07/13 07:42:53;;;;;;;;;;;;;;;29.27;46.70;101152.06;4945274;29;19926;-90
2021/07/13 07:45:20;;;;;;;;;;;;;;;29.24;47.00;101155.25;4944909;29;19949;-90
2021/07/13 07:47:46;;;;;;;;;;;;;;;29.29;47.05;101149.94;4945574;29;20020;-90
2021/07/13 07:50:12;;;;;;;;;;;;;;;29.34;46.53;101153.06;4946137;29;20395;-86
2021/07/13 08:08:15;;;;;;;;;;;;;;;29.06;47.06;101166.69;4849874;29;19949;-90
2021/07/13 08:10:41;;;;;;;;;;;;;;;28.70;48.16;101164.53;4909798;23;20006;-90
2021/07/13 08:13:06;;;;;;;;;;;;;;;29.29;47.08;101161.09;4923321;29;19923;-90
2021/07/13 08:15:39;;;;;;;;;;;;;;;29.09;47.66;101158.81;4925719;29;19915;-91
2021/07/13 08:18:05;;;;;;;;;;;;;;;29.16;47.01;101150.59;4926779;29;19970;-90
2021/07/13 08:20:30;;;;;;;;;;;;;;;28.90;48.09;101154.63;4926534;29;19915;-87
2021/07/13 08:22:56;;;;;;;;;;;;;;;29.32;46.51;101153.25;4925662;29;20444;-88
2021/07/13 08:25:21;;;;;;;;;;;;;;;28.70;48.68;101158.97;4926112;29;19923;-90
2021/07/13 08:27:47;;;;;;;;;;;;;;;29.60;46.29;101163.75;4924744;29;19970;-90
2021/07/13 08:30:13;;;;;;;;;;;;;;;28.37;48.93;101157.22;4925223;29;19994;-90
2021/07/13 08:32:39;;;;;;;;;;;;;;;28.97;47.57;101154.75;4926156;29;19967;-91
2021/07/13 08:35:09;;;;;;;;;;;;;;;29.61;46.01;101162.69;4945837;29;19907;-92
2021/07/13 08:37:35;;;;;;;;;;;;;;;29.12;47.68;101160.38;4906377;29;20424;-92
2021/07/13 08:40:04;;;;;;;;;;;;;;;28.80;48.38;101159.59;4904883;29;19923;-88
2021/07/13 08:42:30;;;;;;;;;;;;;;;29.79;46.19;101164.25;4904390;29;19933;-88
2021/07/13 08:44:57;;;;;;;;;;;;;;;29.16;47.63;101158.94;4905187;29;19922;-90
2021/07/13 08:47:25;;;;;;;;;;;;;;;29.00;47.99;101159.94;4904621;29;19923;-90
2021/07/13 08:49:51;;;;;;;;;;;;;;;28.83;47.85;101161.13;4910675;29;20001;-89
2021/07/13 08:52:16;;;;;;;;;;;;;;;28.84;47.79;101163.75;4923072;29;20361;-87
2021/07/13 08:54:41;;;;;;;;;;;;;;;28.92;47.59;101169.22;4923196;29;20022;-88
2021/07/13 08:57:09;;;;;;;;;;;;;;;28.89;47.65;101161.25;4923164;29;23038;-88
2021/07/13 08:59:35;;;;;;;;;;;;;;;29.02;47.39;101154.19;4923805;29;19918;-89
2021/07/13 09:02:00;;;;;;;;;;;;;;;28.61;48.78;101156.25;4923072;29;19998;-91
2021/07/13 09:04:33;;;;;;;;;;;;;;;28.73;48.03;101164.16;4923357;29;19918;-89
2021/07/13 09:07:09;;;;;;;;;;;;;;;29.33;46.49;101170.81;4924325;29;19926;-89
2021/07/13 09:09:40;;;;;;;;;;;;;;;29.46;46.24;101168.25;4924600;29;19955;-89
2021/07/13 09:12:11;;;;;;;;;;;;;;;29.72;46.02;101163.28;4940566;23;20297;-91
2021/07/13 09:14:55;;;;;;;;;;;;;;;28.68;48.51;101161.06;4921102;29;19930;-89
2021/07/13 09:17:40;;;;;;;;;;;;;;;29.05;47.46;101163.03;4923016;29;19923;-89
2021/07/13 09:20:05;;;;;;;;;;;;;;;29.37;46.76;101157.41;4925988;29;19919;-90
2021/07/13 09:22:31;;;;;;;;;;;;;;;29.73;45.87;101173.38;4924528;29;19923;-88
2021/07/13 09:24:56;;;;;;;;;;;;;;;29.39;46.59;101164.50;4923201;29;20265;-90
2021/07/13 09:27:22;;;;;;;;;;;;;;;29.04;47.35;101166.88;4923659;29;19919;-91
2021/07/13 09:29:49;;;;;;;;;;;;;;;29.47;46.35;101166.31;4928776;29;20017;-89
2021/07/13 09:32:24;;;;;;;;;;;;;;;29.66;45.73;101159.34;4924163;29;19926;-90
2021/07/13 09:34:54;;;;;;;;;;;;;;;29.46;46.44;101164.63;4922713;29;19918;-89
2021/07/13 09:37:22;;;;;;;;;;;;;;;29.52;45.82;101163.84;4922590;29;19919;-88
2021/07/13 09:40:06;;;;;;;;;;;;;;;30.14;44.93;101167.34;4922997;29;19919;-88
2021/07/13 09:42:32;;;;;;;;;;;;;;;29.15;45.99;101163.66;4924509;29;20288;-87
2021/07/13 09:45:16;;;;;;;;;;;;;;;29.81;44.48;101162.16;4923624;29;20010;-87
2021/07/13 09:47:56;;;;;;;;;;;;;;;29.48;45.98;101168.91;4923198;29;19923;-88
2021/07/13 09:50:42;;;;;;;;;;;;;;;29.77;44.52;101172.78;4923492;29;19922;-89
2021/07/13 09:53:11;;;;;;;;;;;;;;;30.12;44.01;101170.31;4922325;29;20380;-92
2021/07/13 09:55:53;;;;;;;;;;;;;;;30.09;44.19;101167.03;4923471;29;19923;-89
2021/07/13 09:58:19;;;;;;;;;;;;;;;29.60;45.62;101160.97;4922026;29;19926;-90
2021/07/13 10:00:48;;;;;;;;;;;;;;;29.81;45.21;101163.03;4922769;29;19918;-87
2021/07/13 10:03:15;;;;;;;;;;;;;;;30.02;44.97;101169.75;4923302;29;19974;-90
2021/07/13 10:05:41;;;;;;;;;;;;;;;29.60;45.66;101165.69;4923361;29;19919;-91
2021/07/13 10:08:07;;;;;;;;;;;;;;;30.18;43.65;101161.19;4923784;29;19918;-89
2021/07/13 10:11:04;;;;;;;;;;;;;;;30.25;43.65;101172.41;4924212;29;19923;-93
2021/07/13 10:13:34;;;;;;;;;;;;;;;30.16;44.07;101168.00;4912433;29;19930;-91
2021/07/13 10:16:05;;;;;;;;;;;;;;;30.29;44.03;101170.13;4921455;29;19924;-90
2021/07/13 10:18:33;;;;;;;;;;;;;;;29.80;44.40;101172.44;4920955;29;20437;-91
2021/07/13 10:21:14;;;;;;;;;;;;;;;;;;;;;
2021/07/13 10:24:18;;;;;;;;;;;;;;;29.93;44.52;101174.56;4933830;29;19977;-92
2021/07/13 10:26:51;;;;;;;;;;;;;;;29.54;45.36;101183.19;5368782;23;20037;-90
2021/07/13 10:29:41;;;;;;;;;;;;;;;29.87;44.49;101184.56;4926187;29;19927;-92
2021/07/13 10:32:29;;;;;;;;;;;;;;;30.27;43.36;101192.63;4928603;29;19937;-92
2021/07/13 10:38:00;;;;;;;;;;;;;;;30.33;43.01;101185.38;5001744;23;20273;-92
2021/07/13 10:40:28;;;;;;;;;;;;;;;30.77;42.06;101183.56;4939802;29;19927;-88
2021/07/13 10:42:56;;;;;;;;;;;;;;;30.58;42.78;101181.22;4943071;29;20372;-90
2021/07/13 10:45:24;;;;;;;;;;;;;;;29.53;44.74;101187.88;4944793;28;19922;-90
2021/07/13 10:47:53;;;;;;;;;;;;;;;30.30;43.03;101192.25;4953930;29;19942;-90
2021/07/13 10:50:18;;;;;;;;;;;;;;;30.08;43.88;101199.66;4953164;29;19919;-88
2021/07/13 10:53:00;;;;;;;;;;;;;;;30.77;42.25;101198.41;4944269;29;19930;-92
2021/07/13 10:55:33;;;;;;;;;;;;;;;30.21;42.78;101212.91;4943163;29;19990;-88
2021/07/13 10:58:16;;;;;;;;;;;;;;;29.33;44.78;101210.72;4943779;29;19919;-90
2021/07/13 11:00:54;;;;;;;;;;;;;;;29.28;45.11;101213.19;4945698;29;19929;-89
2021/07/13 11:09:23;;;;;;;;;;;;;;;29.07;46.01;101215.78;5153624;23;19967;-90
2021/07/13 11:11:49;;;;;;;;;;;;;;;29.48;44.41;101218.25;4939831;29;19985;-89
2021/07/13 11:14:15;;;;;;;;;;;;;;;29.15;44.54;101224.97;4945790;29;20428;-91
2021/07/13 11:16:41;;;;;;;;;;;;;;;29.64;44.32;101218.09;4943957;29;19919;-90
2021/07/13 11:19:12;;;;;;;;;;;;;;;29.56;44.87;101226.53;4945441;29;19941;-90
2021/07/13 11:21:45;;;;;;;;;;;;;;;29.65;44.66;101225.41;4962455;29;19973;-91
2021/07/13 11:32:06;;;;;;;;;;;;;;;29.88;43.10;101224.50;4922872;29;19927;-92
2021/07/13 11:34:56;;;;;;;;;;;;;;;29.56;44.09;101225.66;4905131;29;19919;-91
2021/07/13 11:37:54;;;;;;;;;;;;;;;;;;;;;
2021/07/13 11:40:22;;;;;;;;;;;;;;;30.14;43.04;101234.31;4924460;29;20352;-90
2021/07/13 11:43:00;;;;;;;;;;;;;;;29.23;45.28;101226.84;4905865;29;19919;-88
2021/07/13 11:45:43;;;;;;;;;;;;;;;29.04;45.26;101233.72;4906872;29;19919;-91
2021/07/13 11:48:11;;;;;;;;;;;;;;;29.08;45.43;101228.63;4905813;29;20393;-89
2021/07/13 11:50:36;;;;;;;;;;;;;;;28.93;45.14;101231.38;4906770;29;19929;-88
2021/07/13 11:53:31;;;;;;;;;;;;;;;29.01;45.12;101236.03;4906511;29;19919;-90
2021/07/13 11:56:10;;;;;;;;;;;;;;;28.74;45.69;101229.94;4906931;29;19919;-91
2021/07/13 11:58:51;;;;;;;;;;;;;;;28.78;45.78;101228.53;4906121;29;19919;-89
2021/07/13 12:01:50;;;;;;;;;;;;;;;28.93;45.68;101225.81;4906442;29;19978;-91
2021/07/13 12:06:42;;;;;;;;;;;;;;;29.10;45.08;101226.56;4971518;23;20387;-88
2021/07/13 12:09:12;;;;;;;;;;;;;;;29.16;44.91;101228.59;4925409;29;19918;-91
2021/07/13 12:11:41;;;;;;;;;;;;;;;29.42;44.63;101242.16;4926000;29;20025;-91
2021/07/13 12:14:09;;;;;;;;;;;;;;;29.15;45.11;101238.00;4925173;29;19973;-90
2021/07/13 12:16:35;;;;;;;;;;;;;;;29.60;43.52;101236.25;4925081;29;19915;-90
2021/07/13 12:19:05;;;;;;;;;;;;;;;29.39;43.78;101238.88;4925507;29;19919;-91
2021/07/13 12:21:31;;;;;;;;;;;;;;;29.20;44.17;101238.31;4924427;29;19957;-90
2021/07/13 12:23:57;;;;;;;;;;;;;;;29.34;44.19;101243.09;4926867;29;19926;-91
2021/07/13 12:26:26;;;;;;;;;;;;;;;29.69;43.36;101234.25;4924889;29;19919;-89
2021/07/13 12:29:06;;;;;;;;;;;;;;;29.34;43.82;101245.88;4925616;29;19958;-92
2021/07/13 12:31:32;;;;;;;;;;;;;;;29.15;44.49;101238.88;4926594;29;20333;-91
2021/07/13 12:33:58;;;;;;;;;;;;;;;29.62;43.25;101236.94;4925082;29;19923;-93
2021/07/13 12:36:27;;;;;;;;;;;;;;;30.13;42.43;101239.00;4925789;29;19927;-90
2021/07/13 12:44:59;;;;;;;;;;;;;;;29.79;43.04;101232.06;4953673;23;19933;-88
2021/07/13 12:47:31;;;;;;;;;;;;;;;30.21;41.49;101232.47;4939239;29;19962;-85
2021/07/13 12:50:06;;;;;;;;;;;;;;;30.05;42.56;101239.13;4935626;29;19948;-90
2021/07/13 12:52:32;;;;;;;;;;;;;;;30.65;40.99;101242.75;4927251;29;19920;-82
2021/07/13 12:54:58;;;;;;;;;;;;;;;30.97;40.22;101251.69;4920457;29;20365;-85
2021/07/13 12:57:31;;;;;;;;;;;;;;;30.93;39.91;101242.84;4903744;29;19926;-85
2021/07/13 13:00:01;;;;;;;;;;;;;;;30.59;40.65;101249.13;4915771;29;19919;-85
2021/07/13 13:02:26;;;;;;;;;;;;;;;30.87;39.96;101251.16;4911291;29;19973;-82
2021/07/13 13:04:52;;;;;;;;;;;;;;;30.60;41.38;101248.03;4922463;29;19919;-84
2021/07/13 13:07:21;;;;;;;;;;;;;;;29.78;43.82;101241.47;4938158;29;20391;-84
2021/07/13 13:09:46;;;;;;;;;;;;;;;30.65;40.70;101248.34;4932720;29;19919;-85
2021/07/13 13:12:11;;;;;;;;;;;;;;;30.63;40.71;101244.84;4936744;29;19974;-86
2021/07/13 13:14:36;;;;;;;;;;;;;;;30.63;41.19;101244.84;4932935;29;20303;-84
2021/07/13 13:17:01;;;;;;;;;;;;;;;29.84;42.16;101237.94;4938280;29;20364;-82
2021/07/13 13:19:28;;;;;;;;;;;;;;;29.82;42.36;101247.59;4929957;29;19941;-84
2021/07/13 13:21:53;;;;;;;;;;;;;;;29.28;43.59;101241.06;4937013;29;20260;-84
2021/07/13 13:24:18;;;;;;;;;;;;;;;29.67;43.09;101239.16;4936933;29;19922;-83
2021/07/13 13:26:46;;;;;;;;;;;;;;;28.57;44.94;101238.34;4930713;29;19919;-84
2021/07/13 13:29:11;;;;;;;;;;;;;;;29.41;43.69;101245.13;4935490;29;19974;-83
2021/07/13 13:31:36;;;;;;;;;;;;;;;28.74;44.99;101249.44;4937443;29;19927;-84
2021/07/13 13:34:03;;;;;;;;;;;;;;;28.42;45.43;101251.31;4933147;29;19973;-82
2021/07/13 13:36:29;;;;;;;;;;;;;;;28.72;44.59;101254.31;4930615;29;19926;-87
2021/07/13 13:41:20;;;;;;;;;;;;;;;29.08;43.80;101251.81;4937926;29;19938;-86
2021/07/13 13:43:46;;;;;;;;;;;;;;;29.58;42.51;101254.25;4930868;29;19927;-85
2021/07/13 13:46:11;;;;;;;;;;;;;;;29.46;42.06;101259.38;4935458;29;19927;-84
2021/07/13 13:48:37;;;;;;;;;;;;;;;30.26;40.39;101257.88;4931224;29;19998;-85
2021/07/13 13:51:03;;;;;;;;;;;;;;;29.84;41.16;101251.88;4937395;29;19919;-83
2021/07/13 13:53:28;;;;;;;;;;;;;;;29.85;41.56;101255.56;4936101;29;19946;-86
2021/07/13 13:55:53;;;;;;;;;;;;;;;29.40;42.87;101261.00;4938869;29;19923;-86
2021/07/13 13:58:19;;;;;;;;;;;;;;;29.94;41.77;101254.41;4943654;29;19922;-86
2021/07/13 14:00:44;;;;;;;;;;;;;;;29.50;42.67;101255.16;4940971;29;19930;-84
2021/07/13 14:03:09;;;;;;;;;;;;;;;29.95;41.01;101258.91;4941057;29;20032;-85
2021/07/13 14:05:35;;;;;;;;;;;;;;;29.49;42.54;101261.81;4930455;29;19923;-83
2021/07/13 14:08:00;;;;;;;;;;;;;;;29.63;42.24;101243.38;4939646;29;19926;-82